createdAt,value
2022-08-28T00:00:23.604Z,16.32
2022-08-28T00:02:50.410Z,15.79
2022-08-28T00:05:19.954Z,16.37
2022-08-28T00:07:48.013Z,16.13
2022-08-28T00:10:16.155Z,16.23
2022-08-28T00:12:44.504Z,15.86
2022-08-28T00:15:15.128Z,16.33
2022-08-28T00:17:41.984Z,15.58
2022-08-28T00:20:10.523Z,15.73
2022-08-28T00:22:38.970Z,16.14
2022-08-28T00:25:08.061Z,15.91
2022-08-28T00:27:35.265Z,15.31
2022-08-28T00:30:01.985Z,15.59
2022-08-28T00:32:28.706Z,15.66
2022-08-28T00:34:55.901Z,15.43
2022-08-28T00:37:24.129Z,15.14
2022-08-28T00:39:51.619Z,14.60
2022-08-28T00:42:19.627Z,15.47
2022-08-28T00:44:46.440Z,15.48
2022-08-28T00:47:13.186Z,15.30
2022-08-28T00:49:51.198Z,15.64
2022-08-28T00:52:19.129Z,15.38
2022-08-28T00:54:59.364Z,15.71
2022-08-28T00:57:36.008Z,15.89
2022-08-28T01:00:07.751Z,15.66
2022-08-28T01:02:34.440Z,15.37
2022-08-28T01:05:03.830Z,15.14
2022-08-28T01:07:31.560Z,14.98
2022-08-28T01:09:58.142Z,14.92
2022-08-28T01:12:30.014Z,14.97
2022-08-28T01:14:59.836Z,14.50
2022-08-28T01:17:29.847Z,14.91
2022-08-28T01:20:00.231Z,14.93
2022-08-28T01:22:48.186Z,15.09
2022-08-28T01:25:19.903Z,14.93
2022-08-28T01:27:46.651Z,14.96
2022-08-28T01:30:17.890Z,15.12
2022-08-28T01:32:47.499Z,15.10
2022-08-28T01:35:20.298Z,14.58
2022-08-28T01:37:47.499Z,14.71
2022-08-28T01:40:20.093Z,15.00
2022-08-28T01:42:46.926Z,14.66
2022-08-28T01:45:17.267Z,15.30
2022-08-28T01:47:45.619Z,15.32
2022-08-28T01:50:20.678Z,14.12
2022-08-28T01:52:47.348Z,14.72
2022-08-28T01:55:14.325Z,14.87
2022-08-28T01:57:46.581Z,14.57
2022-08-28T02:00:14.966Z,14.29
2022-08-28T02:02:41.742Z,14.51
2022-08-28T02:05:09.768Z,14.67
2022-08-28T02:07:37.365Z,14.40
2022-08-28T02:10:06.268Z,13.61
2022-08-28T02:12:32.838Z,13.85
2022-08-28T02:14:59.971Z,14.06
2022-08-28T02:17:26.499Z,13.86
2022-08-28T02:19:53.144Z,13.43
2022-08-28T02:22:19.970Z,13.26
2022-08-28T02:24:46.987Z,13.43
2022-08-28T02:27:13.629Z,13.55
2022-08-28T02:29:40.360Z,13.63
2022-08-28T02:32:07.069Z,13.98
2022-08-28T02:34:34.891Z,14.21
2022-08-28T02:37:02.020Z,14.20
2022-08-28T02:39:28.968Z,14.64
2022-08-28T02:41:55.754Z,14.89
2022-08-28T02:44:22.403Z,14.71
2022-08-28T02:46:48.961Z,14.76
2022-08-28T02:49:15.625Z,14.96
2022-08-28T02:51:42.337Z,14.93
2022-08-28T02:54:08.960Z,14.33
2022-08-28T02:56:35.618Z,14.37
2022-08-28T02:59:02.351Z,14.39
2022-08-28T03:01:29.036Z,14.17
2022-08-28T03:03:55.736Z,14.31
2022-08-28T03:06:22.534Z,14.27
2022-08-28T03:08:49.198Z,14.34
2022-08-28T03:11:15.735Z,13.71
2022-08-28T03:13:42.399Z,13.94
2022-08-28T03:16:09.211Z,13.65
2022-08-28T03:18:36.054Z,14.07
2022-08-28T03:21:03.073Z,14.25
2022-08-28T03:23:29.777Z,14.20
2022-08-28T03:26:05.858Z,14.32
2022-08-28T03:28:39.736Z,13.62
2022-08-28T03:31:07.984Z,13.67
2022-08-28T03:33:35.215Z,13.78
2022-08-28T03:36:04.722Z,13.45
2022-08-28T03:38:31.885Z,14.13
2022-08-28T03:40:58.621Z,13.52
2022-08-28T03:43:25.650Z,13.70
2022-08-28T03:46:02.290Z,13.82
2022-08-28T03:48:32.971Z,13.49
2022-08-28T03:51:10.354Z,13.37
2022-08-28T03:53:38.099Z,13.47
2022-08-28T03:56:10.607Z,14.11
2022-08-28T03:58:38.311Z,13.84
2022-08-28T04:01:05.125Z,13.55
2022-08-28T04:03:31.810Z,13.88
2022-08-28T04:05:58.834Z,14.07
2022-08-28T04:08:25.633Z,13.84
2022-08-28T04:10:52.773Z,13.80
2022-08-28T04:13:21.532Z,13.58
2022-08-28T04:16:20.823Z,13.36
2022-08-28T04:18:49.717Z,12.83
2022-08-28T04:21:20.250Z,12.86
2022-08-28T04:23:48.001Z,12.60
2022-08-28T04:26:18.570Z,13.23
2022-08-28T04:28:46.479Z,13.46
2022-08-28T04:31:13.578Z,13.28
2022-08-28T04:33:41.251Z,13.64
2022-08-28T04:36:14.042Z,14.04
2022-08-28T04:38:43.951Z,14.13
2022-08-28T04:41:14.685Z,14.29
2022-08-28T04:43:42.297Z,14.22
2022-08-28T04:46:11.958Z,14.20
2022-08-28T04:48:40.149Z,14.01
2022-08-28T04:51:09.157Z,14.02
2022-08-28T04:53:37.618Z,14.36
2022-08-28T04:56:07.003Z,14.12
2022-08-28T04:58:34.348Z,13.42
2022-08-28T05:01:13.895Z,13.82
2022-08-28T05:03:41.062Z,13.82
2022-08-28T05:06:08.435Z,13.25
2022-08-28T05:08:35.785Z,13.62
2022-08-28T05:11:11.109Z,14.13
2022-08-28T05:13:37.933Z,13.64
2022-08-28T05:16:05.006Z,13.90
2022-08-28T05:18:32.261Z,13.87
2022-08-28T05:20:59.022Z,13.84
2022-08-28T05:23:25.978Z,13.99
2022-08-28T05:25:52.567Z,13.65
2022-08-28T05:28:19.531Z,13.95
2022-08-28T05:30:46.910Z,14.07
2022-08-28T05:33:15.436Z,13.85
2022-08-28T05:35:45.377Z,13.67
2022-08-28T05:38:13.873Z,14.12
2022-08-28T05:40:48.639Z,13.78
2022-08-28T05:43:16.768Z,14.10
2022-08-28T05:45:43.878Z,14.09
2022-08-28T05:48:10.657Z,13.66
2022-08-28T05:50:38.908Z,13.67
2022-08-28T05:53:05.870Z,13.35
2022-08-28T05:55:32.604Z,13.89
2022-08-28T05:57:59.267Z,13.15
2022-08-28T06:00:25.865Z,13.18
2022-08-28T06:02:52.621Z,13.17
2022-08-28T06:05:19.236Z,13.59
2022-08-28T06:07:45.870Z,13.65
2022-08-28T06:10:12.530Z,13.57
2022-08-28T06:12:39.183Z,13.20
2022-08-28T06:15:07.350Z,13.61
2022-08-28T06:17:34.615Z,13.29
2022-08-28T06:20:01.175Z,13.96
2022-08-28T06:22:27.909Z,13.85
2022-08-28T06:24:54.500Z,13.47
2022-08-28T06:27:22.266Z,13.16
2022-08-28T06:29:48.827Z,13.18
2022-08-28T06:32:15.569Z,12.64
2022-08-28T06:34:42.181Z,12.55
2022-08-28T06:37:08.794Z,11.93
2022-08-28T06:39:35.427Z,12.24
2022-08-28T06:42:02.148Z,12.05
2022-08-28T06:44:28.757Z,11.65
2022-08-28T06:46:55.611Z,11.59
2022-08-28T06:49:22.672Z,12.12
2022-08-28T06:51:49.743Z,12.72
2022-08-28T06:54:21.400Z,12.50
2022-08-28T06:56:50.042Z,13.18
2022-08-28T06:59:16.701Z,12.78
2022-08-28T07:01:43.536Z,13.12
2022-08-28T07:04:11.959Z,13.36
2022-08-28T07:06:41.935Z,12.99
2022-08-28T07:09:10.615Z,13.58
2022-08-28T07:11:38.438Z,13.95
2022-08-28T07:14:05.915Z,13.31
2022-08-28T07:16:36.757Z,13.48
2022-08-28T07:19:04.008Z,12.89
2022-08-28T07:21:31.792Z,12.71
2022-08-28T07:23:58.683Z,13.15
2022-08-28T07:26:26.148Z,13.55
2022-08-28T07:28:53.609Z,13.86
2022-08-28T07:31:40.570Z,14.22
2022-08-28T07:34:07.507Z,14.13
2022-08-28T07:36:34.521Z,13.94
2022-08-28T07:39:01.426Z,13.81
2022-08-28T07:41:31.486Z,14.29
2022-08-28T07:43:58.524Z,13.84
2022-08-28T07:46:25.204Z,13.90
2022-08-28T07:48:51.803Z,13.77
2022-08-28T07:51:18.516Z,13.69
2022-08-28T07:53:45.140Z,14.11
2022-08-28T07:56:11.834Z,14.13
2022-08-28T07:58:38.529Z,14.32
2022-08-28T08:01:05.676Z,14.51
2022-08-28T08:03:32.447Z,14.20
2022-08-28T08:06:02.560Z,14.67
2022-08-28T08:08:31.207Z,14.42
2022-08-28T08:11:05.491Z,14.18
2022-08-28T08:13:34.569Z,14.51
2022-08-28T08:16:07.322Z,14.63
2022-08-28T08:18:34.102Z,14.65
2022-08-28T08:21:03.771Z,15.08
2022-08-28T08:23:30.420Z,15.20
2022-08-28T08:25:59.582Z,15.56
2022-08-28T08:28:27.892Z,15.51
2022-08-28T08:31:14.667Z,15.98
2022-08-28T08:33:47.285Z,15.91
2022-08-28T08:36:17.866Z,15.84
2022-08-28T08:38:44.996Z,15.70
2022-08-28T08:41:30.011Z,15.78
2022-08-28T08:44:07.986Z,15.71
2022-08-28T08:46:46.425Z,15.85
2022-08-28T08:49:19.545Z,16.21
2022-08-28T08:51:57.657Z,16.16
2022-08-28T08:54:25.067Z,16.57
2022-08-28T08:56:55.688Z,17.03
2022-08-28T08:59:24.680Z,17.13
2022-08-28T09:02:12.434Z,17.36
2022-08-28T09:04:52.627Z,17.17
2022-08-28T09:07:34.285Z,17.65
2022-08-28T09:10:02.173Z,16.81
2022-08-28T09:12:31.138Z,17.79
2022-08-28T09:14:57.781Z,17.66
2022-08-28T09:17:30.723Z,17.53
2022-08-28T09:19:57.402Z,18.08
2022-08-28T09:22:27.278Z,17.43
2022-08-28T09:24:55.968Z,17.90
2022-08-28T09:27:33.500Z,18.28
2022-08-28T09:30:31.903Z,18.47
2022-08-28T09:33:05.563Z,17.36
2022-08-28T09:35:36.676Z,17.26
2022-08-28T09:38:21.644Z,17.54
2022-08-28T09:40:49.946Z,17.81
2022-08-28T09:43:32.475Z,17.96
2022-08-28T09:46:09.995Z,18.79
2022-08-28T09:48:38.581Z,18.58
2022-08-28T09:51:13.907Z,18.73
2022-08-28T09:53:56.569Z,19.08
2022-08-28T09:56:31.115Z,19.13
2022-08-28T09:59:10.176Z,18.98
2022-08-28T10:01:46.363Z,18.99
2022-08-28T10:04:22.502Z,19.10
2022-08-28T10:06:49.637Z,19.33
2022-08-28T10:09:50.279Z,19.31
2022-08-28T10:12:42.882Z,18.12
2022-08-28T10:15:27.163Z,19.06
2022-08-28T10:18:02.887Z,19.33
2022-08-28T10:20:49.515Z,19.01
2022-08-28T10:23:34.600Z,19.60
2022-08-28T10:26:32.370Z,20.12
2022-08-28T10:29:24.002Z,20.56
2022-08-28T10:32:05.756Z,20.97
2022-08-28T10:34:50.826Z,21.15
2022-08-28T10:37:29.518Z,20.95
2022-08-28T10:39:59.320Z,19.87
2022-08-28T10:42:59.146Z,20.30
2022-08-28T10:45:29.340Z,20.30
2022-08-28T10:48:05.132Z,20.21
2022-08-28T10:50:46.319Z,20.34
2022-08-28T10:53:18.006Z,20.72
2022-08-28T10:56:01.170Z,20.33
2022-08-28T10:58:28.725Z,20.22
2022-08-28T11:01:12.671Z,19.96
2022-08-28T11:03:43.888Z,19.79
2022-08-28T11:06:17.939Z,19.70
2022-08-28T11:08:53.057Z,19.10
2022-08-28T11:11:44.858Z,19.38
2022-08-28T11:14:24.409Z,18.85
2022-08-28T11:16:52.101Z,19.06
2022-08-28T11:19:56.242Z,20.22
2022-08-28T11:22:34.706Z,20.83
2022-08-28T11:25:14.477Z,20.34
2022-08-28T11:28:19.629Z,21.13
2022-08-28T11:30:49.052Z,21.10
2022-08-28T11:33:39.928Z,20.96
2022-08-28T11:36:11.198Z,20.83
2022-08-28T11:38:41.053Z,21.06
2022-08-28T11:41:10.766Z,21.07
2022-08-28T11:43:40.200Z,21.14
2022-08-28T11:46:24.100Z,21.38
2022-08-28T11:48:56.171Z,21.51
2022-08-28T11:51:31.931Z,21.48
2022-08-28T11:54:37.665Z,21.51
2022-08-28T11:57:23.847Z,21.95
2022-08-28T12:00:04.905Z,21.70
2022-08-28T12:02:40.907Z,21.85
2022-08-28T12:05:10.743Z,21.89
2022-08-28T12:07:39.845Z,21.88
2022-08-28T12:10:29.593Z,22.04
2022-08-28T12:13:05.707Z,21.23
2022-08-28T12:15:32.536Z,21.50
2022-08-28T12:18:11.286Z,21.38
2022-08-28T12:20:50.333Z,21.20
2022-08-28T12:23:23.150Z,21.19
2022-08-28T12:26:20.112Z,21.18
2022-08-28T12:28:51.246Z,21.54
2022-08-28T12:31:24.164Z,21.97
2022-08-28T12:34:04.377Z,21.56
2022-08-28T12:36:32.332Z,21.41
2022-08-28T12:38:59.004Z,21.38
2022-08-28T12:41:26.676Z,21.56
2022-08-28T12:43:58.051Z,20.80
2022-08-28T12:46:32.323Z,22.32
2022-08-28T12:49:02.170Z,22.42
2022-08-28T12:51:32.325Z,21.54
2022-08-28T12:54:08.106Z,22.22
2022-08-28T12:56:37.746Z,22.63
2022-08-28T12:59:22.494Z,23.00
2022-08-28T13:01:54.640Z,22.74
2022-08-28T13:04:54.349Z,23.20
2022-08-28T13:07:40.957Z,22.84
2022-08-28T13:10:19.966Z,22.92
2022-08-28T13:12:56.204Z,22.38
2022-08-28T13:15:56.804Z,22.96
2022-08-28T13:18:44.126Z,22.70
2022-08-28T13:21:17.679Z,23.14
2022-08-28T13:23:57.438Z,23.56
2022-08-28T13:26:26.026Z,23.28
2022-08-28T13:28:53.791Z,23.22
2022-08-28T13:31:29.989Z,23.14
2022-08-28T13:34:08.915Z,23.69
2022-08-28T13:36:45.106Z,23.01
2022-08-28T13:39:14.944Z,22.66
2022-08-28T13:41:44.364Z,21.15
2022-08-28T13:44:26.861Z,22.46
2022-08-28T13:46:53.752Z,21.57
2022-08-28T13:49:20.653Z,21.78
2022-08-28T13:51:47.381Z,20.10
2022-08-28T13:54:15.017Z,22.69
2022-08-28T13:56:42.988Z,22.39
2022-08-28T13:59:09.658Z,22.90
2022-08-28T14:01:42.236Z,22.96
2022-08-28T14:04:09.164Z,22.14
2022-08-28T14:06:35.915Z,22.39
2022-08-28T14:09:02.534Z,22.37
2022-08-28T14:11:29.102Z,22.42
2022-08-28T14:13:56.098Z,22.40
2022-08-28T14:16:24.890Z,21.39
2022-08-28T14:18:51.678Z,22.28
2022-08-28T14:21:18.410Z,21.72
2022-08-28T14:23:45.054Z,21.92
2022-08-28T14:26:11.573Z,21.38
2022-08-28T14:28:38.215Z,21.90
2022-08-28T14:31:06.921Z,22.36
2022-08-28T14:33:36.879Z,21.95
2022-08-28T14:36:03.834Z,22.22
2022-08-28T14:38:30.478Z,22.29
2022-08-28T14:40:57.041Z,22.39
2022-08-28T14:43:24.059Z,22.59
2022-08-28T14:45:50.780Z,22.85
2022-08-28T14:48:18.500Z,22.64
2022-08-28T14:50:47.668Z,21.68
2022-08-28T14:53:15.228Z,21.42
2022-08-28T14:55:48.124Z,22.32
2022-08-28T14:58:16.393Z,22.53
2022-08-28T15:00:47.057Z,22.60
2022-08-28T15:03:14.455Z,22.38
2022-08-28T15:05:42.434Z,22.41
2022-08-28T15:08:12.042Z,22.53
2022-08-28T15:10:40.575Z,22.36
2022-08-28T15:13:08.784Z,21.98
2022-08-28T15:15:39.787Z,22.04
2022-08-28T15:18:07.486Z,22.64
2022-08-28T15:20:46.458Z,23.04
2022-08-28T15:23:14.927Z,22.87
2022-08-28T15:25:41.896Z,22.26
2022-08-28T15:28:08.698Z,21.43
2022-08-28T15:30:35.647Z,21.82
2022-08-28T15:33:03.359Z,22.05
2022-08-28T15:35:29.990Z,21.51
2022-08-28T15:37:56.646Z,21.75
2022-08-28T15:40:23.303Z,21.37
2022-08-28T15:42:50.111Z,21.82
2022-08-28T15:45:16.655Z,21.76
2022-08-28T15:47:43.915Z,21.63
2022-08-28T15:50:11.445Z,21.87
2022-08-28T15:52:38.454Z,20.96
2022-08-28T15:55:05.394Z,21.38
2022-08-28T15:57:33.101Z,21.31
2022-08-28T15:59:59.796Z,21.38
2022-08-28T16:02:26.963Z,21.27
2022-08-28T16:04:54.745Z,20.90
2022-08-28T16:07:22.692Z,21.12
2022-08-28T16:09:49.378Z,20.75
2022-08-28T16:12:17.159Z,20.76
2022-08-28T16:14:43.943Z,21.20
2022-08-28T16:17:11.478Z,20.99
2022-08-28T16:19:39.554Z,20.51
2022-08-28T16:22:06.411Z,20.33
2022-08-28T16:24:32.926Z,20.53
2022-08-28T16:26:59.537Z,20.54
2022-08-28T16:29:26.077Z,20.33
2022-08-28T16:31:52.774Z,20.41
2022-08-28T16:34:20.281Z,20.53
2022-08-28T16:36:47.674Z,20.54
2022-08-28T16:39:14.310Z,20.22
2022-08-28T16:41:41.007Z,20.42
2022-08-28T16:44:07.714Z,20.43
2022-08-28T16:46:34.486Z,20.19
2022-08-28T16:49:01.126Z,20.50
2022-08-28T16:51:27.771Z,19.92
2022-08-28T16:53:56.097Z,19.98
2022-08-28T16:56:23.192Z,19.78
2022-08-28T16:58:53.263Z,19.67
2022-08-28T17:01:21.117Z,19.80
2022-08-28T17:03:48.340Z,20.05
2022-08-28T17:06:21.185Z,20.41
2022-08-28T17:08:47.805Z,19.94
2022-08-28T17:11:14.461Z,20.11
2022-08-28T17:13:41.379Z,19.73
2022-08-28T17:16:08.610Z,19.68
2022-08-28T17:18:38.042Z,19.66
2022-08-28T17:21:04.806Z,19.33
2022-08-28T17:23:31.510Z,18.98
2022-08-28T17:25:58.182Z,18.62
2022-08-28T17:28:24.905Z,18.43
2022-08-28T17:30:51.462Z,18.83
2022-08-28T17:33:18.124Z,18.43
2022-08-28T17:35:44.890Z,18.47
2022-08-28T17:38:16.909Z,18.30
2022-08-28T17:40:43.694Z,18.40
2022-08-28T17:43:10.336Z,18.32
2022-08-28T17:45:36.908Z,18.25
2022-08-28T17:48:04.223Z,18.32
2022-08-28T17:50:34.727Z,18.34
2022-08-28T17:53:05.976Z,17.87
2022-08-28T17:55:32.711Z,18.09
2022-08-28T17:57:59.324Z,18.52
2022-08-28T18:00:25.987Z,18.40
2022-08-28T18:02:52.668Z,18.36
2022-08-28T18:05:19.539Z,18.98
2022-08-28T18:07:46.262Z,18.51
2022-08-28T18:10:12.971Z,18.60
2022-08-28T18:12:40.896Z,19.11
2022-08-28T18:15:09.687Z,19.07
2022-08-28T18:17:38.351Z,18.66
2022-08-28T18:20:08.160Z,18.09
2022-08-28T18:22:34.769Z,18.60
2022-08-28T18:25:01.523Z,18.78
2022-08-28T18:27:28.134Z,18.84
2022-08-28T18:29:54.760Z,17.96
2022-08-28T18:32:21.587Z,18.22
2022-08-28T18:34:48.205Z,18.50
2022-08-28T18:37:14.747Z,18.61
2022-08-28T18:39:44.151Z,18.78
2022-08-28T18:42:11.281Z,18.63
2022-08-28T18:44:38.119Z,18.41
2022-08-28T18:47:05.186Z,18.42
2022-08-28T18:49:33.108Z,17.95
2022-08-28T18:52:02.231Z,17.88
2022-08-28T18:54:28.833Z,18.22
2022-08-28T18:56:59.631Z,18.54
2022-08-28T18:59:31.067Z,18.47
2022-08-28T19:01:58.183Z,17.86
2022-08-28T19:04:26.289Z,18.24
2022-08-28T19:06:53.078Z,17.42
2022-08-28T19:09:20.720Z,17.64
2022-08-28T19:11:47.882Z,17.73
2022-08-28T19:14:21.125Z,17.27
2022-08-28T19:16:47.727Z,17.47
2022-08-28T19:19:14.438Z,17.92
2022-08-28T19:21:42.601Z,17.46
2022-08-28T19:24:09.141Z,17.49
2022-08-28T19:26:38.563Z,17.48
2022-08-28T19:29:05.155Z,17.18
2022-08-28T19:31:33.349Z,16.98
2022-08-28T19:34:04.512Z,16.91
2022-08-28T19:36:33.958Z,17.39
2022-08-28T19:39:00.975Z,17.31
2022-08-28T19:41:27.897Z,17.33
2022-08-28T19:43:54.575Z,17.00
2022-08-28T19:46:21.341Z,17.00
2022-08-28T19:48:49.540Z,17.30
2022-08-28T19:51:22.191Z,16.95
2022-08-28T19:53:57.133Z,17.37
2022-08-28T19:56:24.927Z,17.31
2022-08-28T19:58:51.488Z,16.54
2022-08-28T20:01:18.174Z,16.61
2022-08-28T20:03:44.845Z,16.38
2022-08-28T20:06:11.520Z,16.44
2022-08-28T20:08:38.235Z,16.45
2022-08-28T20:11:05.014Z,16.80
2022-08-28T20:13:32.705Z,16.47
2022-08-28T20:16:04.363Z,16.68
2022-08-28T20:18:31.479Z,16.45
2022-08-28T20:20:58.122Z,16.31
2022-08-28T20:23:24.695Z,16.02
2022-08-28T20:25:51.728Z,16.24
2022-08-28T20:28:19.101Z,15.94
2022-08-28T20:30:46.266Z,16.20
2022-08-28T20:33:13.056Z,15.99
2022-08-28T20:35:40.226Z,16.19
2022-08-28T20:38:08.291Z,16.20
2022-08-28T20:40:35.615Z,16.09
2022-08-28T20:43:09.204Z,16.08
2022-08-28T20:45:35.975Z,15.93
2022-08-28T20:48:02.779Z,15.82
2022-08-28T20:50:29.355Z,15.87
2022-08-28T20:52:56.011Z,15.48
2022-08-28T20:55:22.610Z,15.87
2022-08-28T20:57:49.284Z,15.35
2022-08-28T21:00:16.303Z,15.68
2022-08-28T21:02:42.852Z,15.75
2022-08-28T21:05:09.694Z,15.48
2022-08-28T21:07:38.587Z,15.52
2022-08-28T21:10:07.925Z,15.22
2022-08-28T21:12:36.630Z,15.30
2022-08-28T21:15:05.661Z,15.51
2022-08-28T21:17:32.264Z,15.20
2022-08-28T21:20:05.382Z,15.23
2022-08-28T21:22:37.770Z,14.43
2022-08-28T21:25:06.917Z,14.42
2022-08-28T21:27:41.601Z,13.59
2022-08-28T21:30:10.035Z,14.12
2022-08-28T21:32:36.697Z,13.91
2022-08-28T21:35:09.889Z,13.81
2022-08-28T21:37:41.336Z,13.99
2022-08-28T21:40:10.904Z,14.32
2022-08-28T21:42:38.044Z,14.06
2022-08-28T21:45:11.231Z,13.88
2022-08-28T21:47:38.678Z,13.96
2022-08-28T21:50:05.921Z,13.91
2022-08-28T21:52:32.694Z,13.51
2022-08-28T21:55:08.602Z,13.65
2022-08-28T21:57:35.680Z,13.69
2022-08-28T22:00:16.675Z,13.63
2022-08-28T22:02:43.894Z,13.40
2022-08-28T22:05:10.821Z,13.49
2022-08-28T22:07:37.554Z,13.50
2022-08-28T22:10:04.450Z,13.54
2022-08-28T22:12:32.790Z,13.37
2022-08-28T22:14:59.879Z,13.31
2022-08-28T22:17:26.756Z,13.26
2022-08-28T22:19:53.334Z,13.27
2022-08-28T22:22:20.087Z,13.21
2022-08-28T22:24:46.742Z,13.17
2022-08-28T22:27:13.440Z,12.99
2022-08-28T22:29:40.808Z,13.13
2022-08-28T22:32:08.036Z,12.73
2022-08-28T22:34:39.849Z,12.87
2022-08-28T22:37:07.595Z,12.97
2022-08-28T22:39:34.199Z,13.14
2022-08-28T22:42:01.098Z,13.05
2022-08-28T22:44:27.698Z,13.06
2022-08-28T22:46:54.325Z,13.36
2022-08-28T22:49:20.858Z,12.78
2022-08-28T22:51:47.587Z,12.77
2022-08-28T22:54:14.154Z,12.94
2022-08-28T22:56:40.816Z,12.66
2022-08-28T22:59:07.675Z,12.43
2022-08-28T23:01:34.411Z,12.34
2022-08-28T23:04:01.085Z,12.18
2022-08-28T23:06:28.138Z,12.15
2022-08-28T23:08:55.116Z,11.84
2022-08-28T23:11:22.638Z,12.17
2022-08-28T23:13:49.579Z,12.22
2022-08-28T23:16:16.839Z,11.79
2022-08-28T23:19:06.657Z,11.71
2022-08-28T23:21:30.069Z,11.95
2022-08-28T23:23:57.226Z,11.97
2022-08-28T23:26:25.287Z,11.87
2022-08-28T23:28:52.393Z,12.08
2022-08-28T23:31:19.191Z,11.68
2022-08-28T23:33:46.028Z,11.61
2022-08-28T23:36:13.411Z,11.86
2022-08-28T23:38:43.298Z,12.05
2022-08-28T23:41:11.292Z,11.53
2022-08-28T23:43:38.531Z,11.76
2022-08-28T23:46:06.185Z,11.59
2022-08-28T23:48:32.981Z,11.78
2022-08-28T23:50:59.753Z,11.86
2022-08-28T23:53:26.447Z,11.87
2022-08-28T23:55:54.179Z,11.91
2022-08-28T23:58:22.516Z,11.95
